Time;durP1;ratioP1;P1;durP2;ratioP2;P2;SDS_P1;SDS_P2;PMS_P1;PMS_P2;Temp;Humidity;BMP_temperature;BMP_pressure;BME280_temperature;BME280_humidity;BME280_pressure;Samples;Min_cycle;Max_cycle;Signal;HPM_P1;HPM_P2
2023/09/23 00:00:13;;;;;;;;;4.75;4.75;;;;;13.51;84.06;100655.59;4987585;28;9612;-69
2023/09/23 00:02:43;;;;;;;;;4.50;3.25;;;;;13.54;83.99;100659.75;4988710;28;9544;-68
2023/09/23 00:05:11;;;;;;;;;3.00;3.00;;;;;13.55;84.18;100645.16;4982691;28;10219;-67
2023/09/23 00:07:39;;;;;;;;;3.25;3.25;;;;;13.58;84.32;100652.84;4991754;28;9379;-68
2023/09/23 00:10:08;;;;;;;;;5.50;5.50;;;;;13.58;84.23;100652.84;4991536;28;10330;-67
2023/09/23 00:12:36;;;;;;;;;6.00;6.00;;;;;13.58;84.02;100647.44;4992165;28;9617;-68
2023/09/23 00:15:04;;;;;;;;;7.00;4.00;;;;;13.59;84.23;100649.09;4989772;28;9713;-68
2023/09/23 00:17:32;;;;;;;;;6.50;3.50;;;;;13.58;84.38;100659.09;4980596;28;9609;-69
2023/09/23 00:20:00;;;;;;;;;6.50;6.00;;;;;13.58;84.40;100663.66;4987894;28;9641;-68
2023/09/23 00:22:27;;;;;;;;;6.00;6.00;;;;;13.55;84.22;100654.09;4984721;28;9682;-70
2023/09/23 00:24:54;;;;;;;;;3.67;3.67;;;;;13.56;84.19;100663.03;4990331;28;9526;-69
2023/09/23 00:27:21;;;;;;;;;4.75;3.25;;;;;13.55;84.62;100656.00;4989327;28;9400;-70
2023/09/23 00:29:49;;;;;;;;;4.00;4.00;;;;;13.55;84.87;100640.59;4970997;28;9637;-69
2023/09/23 00:32:17;;;;;;;;;7.25;7.25;;;;;13.54;84.53;100632.72;4986614;28;9732;-70
2023/09/23 00:34:43;;;;;;;;;4.00;4.00;;;;;13.52;84.61;100638.31;4991282;28;9766;-70
2023/09/23 00:37:10;;;;;;;;;4.00;4.00;;;;;13.51;84.86;100642.06;4988468;28;9640;-68
2023/09/23 00:39:37;;;;;;;;;2.00;2.00;;;;;13.50;84.64;100650.41;4991713;28;9487;-69
2023/09/23 00:42:04;;;;;;;;;1.50;1.50;;;;;13.50;84.73;100653.94;4990204;28;9399;-69
2023/09/23 00:44:30;;;;;;;;;4.00;2.00;;;;;13.50;85.08;100661.22;4989167;28;9484;-69
2023/09/23 00:46:57;;;;;;;;;2.67;2.00;;;;;13.47;84.49;100667.06;4988258;28;9382;-70
2023/09/23 00:49:27;;;;;;;;;2.75;2.00;;;;;13.45;84.68;100663.75;4965688;28;9407;-70
2023/09/23 00:51:53;;;;;;;;;1.00;1.00;;;;;13.38;84.55;100658.38;4982542;28;9455;-69
2023/09/23 00:54:21;;;;;;;;;2.00;2.00;;;;;13.32;84.84;100648.44;4990939;28;9251;-70
2023/09/23 00:56:48;;;;;;;;;2.00;1.00;;;;;13.32;85.10;100660.06;4988532;28;9395;-70
2023/09/23 00:59:17;;;;;;;;;1.00;1.00;;;;;13.32;85.09;100657.38;4988531;28;9328;-68
2023/09/23 01:01:44;;;;;;;;;1.00;1.00;;;;;13.32;84.96;100653.84;4989480;28;9387;-69
2023/09/23 01:04:13;;;;;;;;;2.00;1.00;;;;;13.34;85.19;100651.75;4983324;28;9283;-68
2023/09/23 01:06:40;;;;;;;;;0.00;0.00;;;;;13.37;85.17;100645.94;4975271;28;9423;-69
2023/09/23 01:09:13;;;;;;;;;0.00;0.00;;;;;13.38;85.23;100655.69;4982017;28;9407;-69
2023/09/23 01:11:40;;;;;;;;;0.00;0.00;;;;;13.39;85.17;100643.00;4990883;28;9327;-69
2023/09/23 01:14:06;;;;;;;;;0.33;0.33;;;;;13.41;85.28;100649.84;4989340;28;9486;-68
2023/09/23 01:16:33;;;;;;;;;0.00;0.00;;;;;13.43;85.19;100655.03;4989325;28;9333;-68
2023/09/23 01:19:00;;;;;;;;;1.00;1.00;;;;;13.43;85.15;100655.84;4988690;28;9184;-68
2023/09/23 01:21:26;;;;;;;;;1.00;1.00;;;;;13.44;84.97;100653.97;4987898;28;9888;-69
2023/09/23 01:23:53;;;;;;;;;2.00;0.67;;;;;13.43;84.97;100666.66;4989289;28;9262;-70
2023/09/23 01:26:19;;;;;;;;;0.00;0.00;;;;;13.44;85.09;100667.50;4989285;28;9171;-69
2023/09/23 01:28:48;;;;;;;;;1.67;1.67;;;;;13.42;85.30;100673.13;4980860;28;9329;-70
2023/09/23 01:31:15;;;;;;;;;1.00;1.00;;;;;13.39;84.86;100684.38;4989398;28;9333;-70
2023/09/23 01:33:42;;;;;;;;;0.67;0.67;;;;;13.38;85.15;100685.44;4989474;28;9387;-69
2023/09/23 01:36:11;;;;;;;;;2.00;0.00;;;;;13.42;85.45;100673.13;4987468;28;9258;-70
2023/09/23 01:38:39;;;;;;;;;2.00;2.00;;;;;13.38;85.45;100676.50;4989378;28;9333;-69
2023/09/23 01:41:07;;;;;;;;;3.00;3.00;;;;;13.34;85.68;100685.03;4987146;28;9479;-70
2023/09/23 01:43:33;;;;;;;;;3.00;3.00;;;;;13.32;85.73;100680.88;4988268;28;9622;-68
2023/09/23 01:46:03;;;;;;;;;2.50;2.50;;;;;13.32;85.79;100688.97;4972959;28;9534;-70
2023/09/23 01:48:30;;;;;;;;;7.00;7.00;;;;;13.22;86.13;100686.72;4985188;28;9570;-70
2023/09/23 01:51:00;;;;;;;;;5.75;4.75;;;;;13.16;86.08;100682.16;4974560;28;9752;-70
2023/09/23 01:53:28;;;;;;;;;5.50;4.50;;;;;13.13;86.54;100682.63;4987171;28;9692;-70
2023/09/23 01:55:55;;;;;;;;;5.00;5.00;;;;;13.08;86.82;100680.56;4987669;28;10416;-69
2023/09/23 01:58:22;;;;;;;;;6.50;6.50;;;;;13.10;87.03;100681.16;4988967;28;9700;-69
2023/09/23 02:00:50;;;;;;;;;3.75;2.50;;;;;13.11;87.06;100680.09;4989471;28;9654;-69
2023/09/23 02:03:17;;;;;;;;;6.50;6.50;;;;;13.13;87.27;100685.31;4990607;28;9654;-69
2023/09/23 02:05:46;;;;;;;;;3.00;2.75;;;;;13.12;87.17;100683.63;4987783;28;9744;-69
2023/09/23 02:08:13;;;;;;;;;9.25;8.75;;;;;13.11;87.08;100681.97;4990192;28;9525;-69
2023/09/23 02:10:48;;;;;;;;;8.00;7.25;;;;;13.13;87.24;100689.91;4988265;28;9791;-69
2023/09/23 02:13:15;;;;;;;;;8.00;8.00;;;;;13.11;87.27;100684.69;4972142;28;10557;-70
2023/09/23 02:15:42;;;;;;;;;10.75;10.75;;;;;13.07;87.01;100684.28;4990431;28;9789;-70
2023/09/23 02:18:08;;;;;;;;;12.00;11.00;;;;;13.06;87.25;100685.34;4989843;28;9920;-70
2023/09/23 02:20:35;;;;;;;;;10.50;9.00;;;;;13.08;87.41;100683.25;4980913;28;10155;-69
2023/09/23 02:23:03;;;;;;;;;12.25;10.50;;;;;13.09;87.22;100684.09;4988660;28;9898;-70
2023/09/23 02:25:29;;;;;;;;;8.25;8.25;;;;;13.09;87.23;100686.78;4988289;28;9938;-71
2023/09/23 02:27:57;;;;;;;;;11.00;9.75;;;;;13.11;87.36;100695.50;4987076;28;10044;-70
2023/09/23 02:30:23;;;;;;;;;10.25;9.00;;;;;13.13;87.01;100698.00;4990108;28;10017;-70
2023/09/23 02:32:50;;;;;;;;;15.75;15.00;;;;;13.09;87.17;100705.69;4988456;28;9949;-69
2023/09/23 02:35:17;;;;;;;;;16.00;14.25;;;;;13.07;87.05;100713.19;4991871;28;10181;-70
2023/09/23 02:37:45;;;;;;;;;20.75;20.50;;;;;13.07;87.18;100710.47;4984624;28;9925;-70
2023/09/23 02:40:14;;;;;;;;;15.00;14.00;;;;;13.06;87.29;100703.41;4992479;28;10268;-70
2023/09/23 02:42:43;;;;;;;;;18.50;16.75;;;;;13.02;87.48;100721.09;4993753;28;10114;-70
2023/09/23 02:45:13;;;;;;;;;21.25;19.50;;;;;13.05;87.63;100721.50;4992319;28;10115;-70
2023/09/23 02:47:43;;;;;;;;;20.00;17.25;;;;;13.07;87.79;100718.59;4990004;28;10144;-70
2023/09/23 02:50:13;;;;;;;;;21.00;18.50;;;;;13.06;87.67;100723.16;4984179;28;10222;-70
2023/09/23 02:52:41;;;;;;;;;22.75;19.25;;;;;13.05;87.82;100718.81;4991887;28;10284;-69
2023/09/23 02:55:12;;;;;;;;;23.00;19.75;;;;;13.07;88.24;100716.72;4989748;28;11086;-68
2023/09/23 02:57:41;;;;;;;;;25.00;25.00;;;;;13.04;87.76;100714.44;4992354;28;10127;-69
2023/09/23 03:00:18;;;;;;;;;23.50;22.50;;;;;13.00;87.97;100725.88;4988311;28;11082;-70
2023/09/23 03:02:56;;;;;;;;;18.50;18.50;;;;;13.02;88.29;100721.94;4992313;28;10335;-70
2023/09/23 03:05:29;;;;;;;;;18.75;18.75;;;;;13.04;88.26;100713.59;4992667;28;10035;-70
2023/09/23 03:07:58;;;;;;;;;19.00;17.50;;;;;13.07;88.58;100711.31;4992894;28;10182;-70
2023/09/23 03:10:39;;;;;;;;;23.00;18.75;;;;;13.07;88.33;100710.47;4992498;28;10851;-69
2023/09/23 03:13:11;;;;;;;;;20.25;18.25;;;;;13.05;88.42;100721.50;4991919;28;10272;-70
2023/09/23 03:15:44;;;;;;;;;17.75;17.75;;;;;13.07;88.56;100721.28;4990955;28;10179;-70
2023/09/23 03:18:14;;;;;;;;;20.00;18.25;;;;;13.05;88.72;100735.03;4984882;28;10418;-69
2023/09/23 03:20:41;;;;;;;;;16.75;15.00;;;;;13.06;88.77;100730.44;4983695;28;10163;-70
2023/09/23 03:23:12;;;;;;;;;13.50;13.00;;;;;13.04;88.77;100729.81;4992846;28;10038;-70
2023/09/23 03:25:46;;;;;;;;;17.50;13.75;;;;;13.07;88.55;100737.50;4990157;28;10763;-69
2023/09/23 03:28:17;;;;;;;;;17.00;12.75;;;;;13.07;88.80;100729.41;4992565;28;9888;-71
2023/09/23 03:30:47;;;;;;;;;15.00;12.50;;;;;13.05;88.82;100735.03;4988358;28;10039;-70
2023/09/23 03:33:18;;;;;;;;;14.25;12.25;;;;;13.04;88.52;100736.03;4990792;28;10141;-70
2023/09/23 03:35:47;;;;;;;;;14.75;11.00;;;;;13.04;88.83;100737.91;4970201;28;9893;-70
2023/09/23 03:38:13;;;;;;;;;13.00;12.00;;;;;13.06;88.51;100746.66;4989598;28;11019;-70
2023/09/23 03:40:41;;;;;;;;;12.50;12.50;;;;;13.04;88.58;100749.56;4989663;28;9894;-70
2023/09/23 03:43:07;;;;;;;;;9.50;9.50;;;;;13.06;88.63;100743.97;5011871;28;9788;-69
2023/09/23 03:45:34;;;;;;;;;13.50;12.00;;;;;13.01;88.43;100744.59;4991533;28;9986;-70
2023/09/23 03:48:02;;;;;;;;;16.25;16.00;;;;;13.01;88.41;100758.09;4990775;28;9958;-70
2023/09/23 03:50:30;;;;;;;;;13.00;10.75;;;;;13.01;88.41;100754.59;4992260;28;10710;-70
2023/09/23 03:52:58;;;;;;;;;13.00;12.00;;;;;12.99;88.67;100760.19;4986557;28;9873;-70
2023/09/23 03:55:24;;;;;;;;;12.25;12.00;;;;;13.01;88.46;100766.22;4989426;28;10027;-70
2023/09/23 03:57:51;;;;;;;;;11.50;10.00;;;;;13.01;88.60;100762.69;4990848;28;10080;-70
2023/09/23 04:00:17;;;;;;;;;8.50;8.00;;;;;13.02;88.34;100767.03;4992726;28;9777;-70
2023/09/23 04:02:50;;;;;;;;;11.50;10.25;;;;;13.01;88.03;100779.72;4985349;28;9693;-71
2023/09/23 04:05:16;;;;;;;;;9.50;9.50;;;;;12.99;88.19;100772.88;4991252;28;9770;-71
2023/09/23 04:07:50;;;;;;;;;9.75;9.75;;;;;12.97;88.33;100773.09;5002036;28;9987;-70
2023/09/23 04:10:19;;;;;;;;;13.00;10.50;;;;;12.93;88.60;100779.13;4992010;28;10503;-71
2023/09/23 04:12:46;;;;;;;;;11.50;9.25;;;;;12.85;88.58;100774.78;4988273;28;10393;-69
2023/09/23 04:15:12;;;;;;;;;11.00;8.75;;;;;12.87;88.60;100789.72;4983766;28;9703;-70
2023/09/23 04:17:39;;;;;;;;;9.25;7.50;;;;;12.83;88.38;100787.66;4985921;28;10472;-71
2023/09/23 04:20:09;;;;;;;;;9.00;9.00;;;;;12.78;88.29;100790.16;4987971;28;9724;-71
2023/09/23 04:22:37;;;;;;;;;13.00;7.75;;;;;12.81;88.86;100793.28;4989577;28;10649;-70
2023/09/23 04:25:05;;;;;;;;;7.75;7.00;;;;;12.83;88.90;100791.19;4989765;28;9914;-69
2023/09/23 04:27:37;;;;;;;;;6.00;6.00;;;;;12.78;88.72;100790.97;4973319;28;9767;-69
2023/09/23 04:30:09;;;;;;;;;7.25;7.25;;;;;12.77;89.16;100793.91;4987695;28;9830;-71
2023/09/23 04:32:42;;;;;;;;;4.00;4.00;;;;;12.79;88.89;100795.34;5003075;28;9801;-70
2023/09/23 04:35:14;;;;;;;;;5.00;4.00;;;;;12.82;89.06;100794.09;4988253;28;9687;-71
2023/09/23 04:37:40;;;;;;;;;4.25;3.00;;;;;12.83;88.99;100795.75;4985496;28;9624;-69
2023/09/23 04:40:13;;;;;;;;;7.00;4.50;;;;;12.82;89.16;100804.91;4991637;28;9627;-70
2023/09/23 04:42:43;;;;;;;;;3.00;3.00;;;;;12.89;89.17;100813.00;4987843;28;10431;-70
2023/09/23 04:45:11;;;;;;;;;4.00;4.00;;;;;12.93;89.20;100819.66;4970931;28;9756;-71
2023/09/23 04:47:39;;;;;;;;;7.00;4.25;;;;;12.95;88.98;100822.97;4970446;28;9548;-70
2023/09/23 04:50:11;;;;;;;;;4.75;4.75;;;;;12.94;88.63;100837.53;4979654;28;9642;-70
2023/09/23 04:52:38;;;;;;;;;3.75;3.75;;;;;12.94;88.96;100840.22;4987842;28;9620;-71
2023/09/23 04:55:06;;;;;;;;;2.50;2.00;;;;;12.94;88.74;100846.44;4973230;28;9706;-70
2023/09/23 04:57:33;;;;;;;;;3.00;3.00;;;;;12.95;88.99;100848.09;4989058;28;9372;-70
2023/09/23 05:00:00;;;;;;;;;2.25;2.25;;;;;12.93;88.86;100842.09;4982734;28;9653;-71
2023/09/23 05:02:26;;;;;;;;;3.75;3.75;;;;;12.96;88.99;100851.63;4971761;28;9743;-71
2023/09/23 05:04:53;;;;;;;;;5.00;3.75;;;;;12.99;88.91;100860.16;4988995;28;9405;-70
2023/09/23 05:07:21;;;;;;;;;3.00;3.00;;;;;13.01;88.84;100855.38;4990618;28;9653;-71
2023/09/23 05:09:49;;;;;;;;;3.00;3.00;;;;;12.99;88.68;100851.22;4990388;28;9530;-71
2023/09/23 05:12:15;;;;;;;;;3.00;3.00;;;;;13.03;88.81;100856.00;4991094;28;9546;-70
2023/09/23 05:14:45;;;;;;;;;4.00;4.00;;;;;13.02;88.71;100861.63;4989687;28;9505;-70
2023/09/23 05:17:14;;;;;;;;;5.25;3.00;;;;;13.05;88.89;100866.63;4990848;28;9656;-70
2023/09/23 05:19:42;;;;;;;;;3.00;2.75;;;;;13.07;89.18;100873.44;4990149;28;9560;-68
2023/09/23 05:22:10;;;;;;;;;5.50;4.00;;;;;13.08;89.07;100887.78;4983379;28;9530;-70
2023/09/23 05:24:38;;;;;;;;;3.00;3.00;;;;;13.06;88.97;100884.47;4989225;28;9463;-70
2023/09/23 05:27:05;;;;;;;;;5.25;3.75;;;;;13.08;88.93;100885.94;4990407;28;9603;-69
2023/09/23 05:29:32;;;;;;;;;6.25;4.25;;;;;13.10;88.93;100888.44;4986145;28;9497;-69
2023/09/23 05:31:58;;;;;;;;;2.75;2.50;;;;;13.10;88.67;100886.56;4988688;28;9510;-70
2023/09/23 05:34:25;;;;;;;;;3.75;3.75;;;;;13.10;88.83;100893.84;4987963;28;9531;-70
2023/09/23 05:36:53;;;;;;;;;4.00;3.50;;;;;13.11;88.89;100898.19;4989870;28;9466;-70
2023/09/23 05:39:20;;;;;;;;;4.50;2.75;;;;;13.11;89.05;100898.19;4989868;28;9653;-70
2023/09/23 05:41:50;;;;;;;;;5.25;5.25;;;;;13.14;88.98;100900.47;4989252;28;9606;-69
2023/09/23 05:44:18;;;;;;;;;6.00;6.00;;;;;13.14;89.19;100914.00;4989172;28;9692;-69
2023/09/23 05:46:48;;;;;;;;;9.50;7.75;;;;;13.12;89.06;100913.34;4989941;28;9747;-71
2023/09/23 05:49:15;;;;;;;;;5.00;5.00;;;;;13.13;89.05;100912.34;4986096;28;9696;-70
2023/09/23 05:51:42;;;;;;;;;4.00;4.00;;;;;13.13;89.04;100915.03;4990476;28;9727;-70
2023/09/23 05:54:08;;;;;;;;;5.50;5.50;;;;;13.14;89.12;100921.28;4990472;28;9615;-69
2023/09/23 05:56:35;;;;;;;;;8.25;8.25;;;;;13.09;89.49;100913.81;4979057;28;9532;-70
2023/09/23 05:59:02;;;;;;;;;3.75;2.00;;;;;13.10;89.44;100915.44;4983291;28;10482;-70
2023/09/23 06:01:29;;;;;;;;;4.00;4.00;;;;;13.10;89.55;100918.97;4990584;28;9831;-70
2023/09/23 06:03:56;;;;;;;;;5.25;4.25;;;;;13.13;89.71;100928.56;4989105;28;9594;-70
2023/09/23 06:06:23;;;;;;;;;12.00;7.00;;;;;13.09;89.82;100916.50;4988825;28;9548;-69
2023/09/23 06:08:50;;;;;;;;;7.75;6.25;;;;;13.13;89.42;100931.25;4988014;28;10396;-70
2023/09/23 06:11:17;;;;;;;;;3.25;3.00;;;;;13.13;89.46;100939.38;4993997;28;9791;-69
2023/09/23 06:13:44;;;;;;;;;5.50;4.50;;;;;13.14;89.72;100934.78;4973803;28;10313;-69
2023/09/23 06:16:11;;;;;;;;;3.00;3.00;;;;;13.13;89.50;100933.97;4993406;28;9628;-70
2023/09/23 06:18:38;;;;;;;;;5.50;5.50;;;;;13.11;89.41;100938.72;5049525;23;9761;-69
2023/09/23 06:21:06;;;;;;;;;4.25;3.00;;;;;13.11;89.66;100941.44;5038830;28;9628;-69
2023/09/23 06:23:32;;;;;;;;;3.00;3.00;;;;;13.14;89.57;100943.72;5034959;28;9642;-69
2023/09/23 06:26:02;;;;;;;;;4.00;4.00;;;;;13.15;89.48;100949.97;5047483;28;9661;-68
2023/09/23 06:28:29;;;;;;;;;4.00;4.00;;;;;13.14;89.38;100956.41;5031995;28;9614;-70
2023/09/23 06:30:56;;;;;;;;;3.50;3.50;;;;;13.13;89.54;100958.28;5008038;28;9445;-69
2023/09/23 06:33:23;;;;;;;;;5.25;4.00;;;;;13.15;89.78;100961.59;5013557;28;9515;-69
2023/09/23 06:35:50;;;;;;;;;6.00;6.00;;;;;13.17;89.75;100964.13;5011273;28;9531;-69
2023/09/23 06:38:16;;;;;;;;;6.25;4.00;;;;;13.20;89.73;100969.06;5009770;28;9548;-69
2023/09/23 06:40:43;;;;;;;;;3.75;3.75;;;;;13.21;90.25;100971.59;5009789;28;9629;-69
2023/09/23 06:43:10;;;;;;;;;7.50;6.25;;;;;13.26;90.34;100974.53;5011040;28;10354;-70
2023/09/23 06:45:36;;;;;;;;;8.25;7.50;;;;;13.32;90.05;100978.25;5029612;28;9631;-69
2023/09/23 06:48:03;;;;;;;;;7.25;7.25;;;;;13.34;89.89;100985.13;5020259;28;9533;-69
2023/09/23 06:50:30;;;;;;;;;6.75;6.75;;;;;13.38;90.06;100979.31;5027474;28;9721;-69
2023/09/23 06:52:57;;;;;;;;;13.00;10.50;;;;;13.35;89.84;100988.66;5011709;28;9475;-69
2023/09/23 06:55:24;;;;;;;;;12.00;9.00;;;;;13.31;90.26;100982.00;5011550;28;9553;-69
2023/09/23 06:57:50;;;;;;;;;9.00;9.00;;;;;13.25;90.24;100978.28;5012496;28;9599;-69
2023/09/23 07:00:17;;;;;;;;;9.00;6.00;;;;;13.26;90.91;100985.34;5011281;28;9556;-70
2023/09/23 07:02:44;;;;;;;;;5.00;5.00;;;;;13.28;91.02;100987.81;5007322;28;9547;-69
2023/09/23 07:05:11;;;;;;;;;6.75;6.75;;;;;13.26;90.45;100990.75;5012861;28;9691;-70
2023/09/23 07:07:37;;;;;;;;;9.50;9.00;;;;;13.23;90.84;100999.25;5010685;28;9390;-70
2023/09/23 07:10:04;;;;;;;;;7.00;7.00;;;;;13.21;90.96;100998.63;5010631;28;9769;-69
2023/09/23 07:12:31;;;;;;;;;7.50;6.75;;;;;13.25;91.35;100999.06;5012586;28;9522;-69
2023/09/23 07:14:57;;;;;;;;;5.25;5.25;;;;;13.27;91.13;101016.72;5011533;28;9600;-70
2023/09/23 07:17:25;;;;;;;;;10.75;7.50;;;;;13.28;91.23;101020.25;5010571;28;9605;-70
2023/09/23 07:19:52;;;;;;;;;7.25;4.25;;;;;13.28;91.28;101014.84;5007526;28;9833;-69
2023/09/23 07:22:19;;;;;;;;;7.00;7.00;;;;;13.30;91.46;101023.59;5012411;28;9674;-69
2023/09/23 07:24:46;;;;;;;;;3.25;3.25;;;;;13.33;91.78;101029.44;5010932;28;9706;-69
2023/09/23 07:27:13;;;;;;;;;5.25;5.00;;;;;13.44;91.92;101024.44;5007741;28;9628;-70
2023/09/23 07:29:39;;;;;;;;;6.75;5.00;;;;;13.46;91.62;101022.34;5006404;28;9511;-69
2023/09/23 07:32:06;;;;;;;;;6.00;6.00;;;;;13.46;91.59;101027.78;5006875;28;9529;-69
2023/09/23 07:34:32;;;;;;;;;4.00;4.00;;;;;13.51;92.09;101036.09;5006783;28;9652;-69
2023/09/23 07:36:59;;;;;;;;;6.50;6.00;;;;;13.64;93.76;101048.75;5007719;28;9551;-69
2023/09/23 07:39:25;;;;;;;;;4.00;2.50;;;;;13.72;92.70;101051.25;5011374;28;9520;-69
2023/09/23 07:41:52;;;;;;;;;4.00;4.00;;;;;13.69;92.15;101057.06;5008578;28;9541;-69
2023/09/23 07:44:18;;;;;;;;;4.00;4.00;;;;;13.70;92.18;101064.16;5009989;28;9394;-69
2023/09/23 07:46:45;;;;;;;;;6.50;4.00;;;;;13.64;91.76;101068.53;5010523;28;9480;-69
2023/09/23 07:49:11;;;;;;;;;4.33;4.00;;;;;13.63;92.44;101072.28;5011688;28;9553;-69
2023/09/23 07:51:38;;;;;;;;;7.00;4.00;;;;;13.65;92.29;101085.56;5011826;28;9340;-69
2023/09/23 07:54:05;;;;;;;;;3.00;2.00;;;;;13.69;92.14;101093.06;5011055;28;9530;-69
2023/09/23 07:56:31;;;;;;;;;2.33;2.33;;;;;13.70;92.07;101094.75;5008885;28;9378;-69
2023/09/23 07:58:58;;;;;;;;;2.67;2.00;;;;;13.70;91.83;101092.06;5007762;28;9434;-69
2023/09/23 08:01:24;;;;;;;;;2.67;2.67;;;;;13.71;91.96;101088.28;5009344;28;9358;-69
2023/09/23 08:03:52;;;;;;;;;2.33;2.33;;;;;13.72;92.15;101097.25;5009196;28;10187;-69
2023/09/23 08:06:18;;;;;;;;;1.33;1.33;;;;;13.74;92.35;101092.47;5011034;28;9313;-69
2023/09/23 08:08:45;;;;;;;;;2.00;2.00;;;;;13.74;91.82;101095.19;5011434;28;9235;-69
2023/09/23 08:11:11;;;;;;;;;2.00;2.00;;;;;13.72;91.98;101103.47;5009049;28;9342;-69
2023/09/23 08:13:38;;;;;;;;;1.00;1.00;;;;;13.74;91.96;101098.72;5009292;28;9316;-69
2023/09/23 08:16:04;;;;;;;;;2.33;2.33;;;;;13.77;91.91;101113.66;5008665;28;9332;-68
2023/09/23 08:18:31;;;;;;;;;3.67;3.67;;;;;13.75;91.93;101119.31;5004415;28;9435;-69
2023/09/23 08:20:59;;;;;;;;;1.33;1.33;;;;;13.76;91.74;101115.56;5008839;28;9414;-69
2023/09/23 08:23:26;;;;;;;;;1.00;1.00;;;;;13.77;91.90;101121.78;5011359;28;9310;-68
2023/09/23 08:25:54;;;;;;;;;4.00;4.00;;;;;13.78;92.01;101124.31;5011246;28;9305;-69
2023/09/23 08:28:20;;;;;;;;;2.00;2.00;;;;;13.85;92.21;101135.09;5000827;28;9261;-69
2023/09/23 08:30:49;;;;;;;;;1.00;1.00;;;;;13.94;92.46;101142.00;5010861;28;9245;-69
2023/09/23 08:33:16;;;;;;;;;1.00;1.00;;;;;14.04;92.38;101130.72;5009802;28;9273;-70
2023/09/23 08:35:47;;;;;;;;;1.33;1.33;;;;;14.15;92.43;101140.09;5009068;28;9327;-69
2023/09/23 08:38:14;;;;;;;;;3.67;3.00;;;;;14.21;91.70;101141.94;5009462;28;9382;-69
2023/09/23 08:40:44;;;;;;;;;1.00;1.00;;;;;14.23;91.52;101156.94;5007758;28;9237;-68
2023/09/23 08:43:11;;;;;;;;;5.33;3.00;;;;;14.22;91.38;101171.53;5006293;28;9085;-69
2023/09/23 08:45:43;;;;;;;;;2.00;2.00;;;;;14.16;91.39;101175.06;5008792;28;9173;-69
2023/09/23 08:48:11;;;;;;;;;2.00;2.00;;;;;14.13;91.40;101178.19;5006743;28;9240;-69
2023/09/23 08:50:46;;;;;;;;;2.00;1.33;;;;;14.12;91.66;101168.41;5010784;28;9303;-69
2023/09/23 08:53:16;;;;;;;;;1.00;1.00;;;;;14.11;91.60;101174.88;5009705;28;9290;-69
2023/09/23 08:55:44;;;;;;;;;3.00;2.67;;;;;14.13;91.94;101180.91;5010983;28;9196;-69
2023/09/23 08:58:11;;;;;;;;;1.33;1.33;;;;;14.17;91.94;101178.59;5009257;28;9457;-69
2023/09/23 09:00:44;;;;;;;;;2.00;2.00;;;;;14.18;92.13;101182.97;4991672;28;9446;-69
2023/09/23 09:03:11;;;;;;;;;4.33;2.00;;;;;14.20;91.85;101192.56;5015259;28;9316;-69
2023/09/23 09:05:39;;;;;;;;;3.00;3.00;;;;;14.24;92.05;101190.28;5018561;28;9319;-69
2023/09/23 09:08:09;;;;;;;;;2.00;2.00;;;;;14.27;91.72;101198.81;5009446;28;10153;-69
2023/09/23 09:10:35;;;;;;;;;2.33;2.33;;;;;14.32;91.96;101199.00;5009233;28;10043;-69
2023/09/23 09:13:03;;;;;;;;;2.33;2.33;;;;;14.38;91.93;101200.06;5009337;28;9251;-69
2023/09/23 09:15:30;;;;;;;;;2.00;2.00;;;;;14.42;91.94;101195.88;5005203;28;9510;-69
2023/09/23 09:17:58;;;;;;;;;2.00;2.00;;;;;14.44;92.17;101199.19;5009937;28;9327;-69
2023/09/23 09:20:25;;;;;;;;;2.33;2.00;;;;;14.52;91.82;101201.72;5009465;28;9252;-69
2023/09/23 09:22:52;;;;;;;;;2.67;2.67;;;;;14.54;91.72;101204.22;5002742;28;9176;-69
2023/09/23 09:25:20;;;;;;;;;2.67;2.67;;;;;14.54;91.87;101205.06;5008151;28;9176;-68
2023/09/23 09:27:47;;;;;;;;;4.67;3.67;;;;;14.43;91.92;101211.09;5007732;28;9191;-69
2023/09/23 09:30:14;;;;;;;;;4.00;3.00;;;;;14.38;92.35;101210.91;5003775;28;9293;-69
2023/09/23 09:32:42;;;;;;;;;5.00;5.00;;;;;14.37;92.26;101224.63;5007361;28;10138;-69
2023/09/23 09:35:14;;;;;;;;;1.67;1.67;;;;;14.43;92.31;101221.09;5010300;28;9545;-69
2023/09/23 09:37:46;;;;;;;;;2.00;2.00;;;;;14.49;92.18;101221.09;5008357;28;9430;-68
2023/09/23 09:40:15;;;;;;;;;2.67;2.67;;;;;14.54;92.41;101221.31;5010741;28;9375;-69
2023/09/23 09:42:49;;;;;;;;;1.00;1.00;;;;;14.55;92.40;101216.72;5005738;28;9500;-69
2023/09/23 09:45:19;;;;;;;;;2.00;2.00;;;;;14.62;92.36;101227.53;5012584;28;9224;-69
2023/09/23 09:47:50;;;;;;;;;3.00;3.00;;;;;14.61;92.14;101226.72;5012180;28;9226;-68
2023/09/23 09:50:16;;;;;;;;;3.33;3.33;;;;;14.60;92.15;101227.75;5008979;28;9322;-69
2023/09/23 09:52:43;;;;;;;;;2.33;2.00;;;;;14.60;92.15;101227.75;5009812;28;9357;-69
2023/09/23 09:55:18;;;;;;;;;2.00;2.00;;;;;14.63;92.52;101237.34;5009968;28;9338;-69
2023/09/23 09:57:47;;;;;;;;;1.00;1.00;;;;;14.71;92.14;101232.53;5008259;28;8920;-69
2023/09/23 10:00:33;;;;;;;;;2.00;2.00;;;;;14.78;92.19;101236.03;5011224;28;8929;-69
2023/09/23 10:03:02;;;;;;;;;1.00;1.00;;;;;14.87;92.10;101236.66;5011871;28;9039;-69
2023/09/23 10:05:34;;;;;;;;;1.00;1.00;;;;;14.92;91.88;101239.56;5007284;28;8899;-69
2023/09/23 10:08:15;;;;;;;;;1.00;1.00;;;;;14.94;91.35;101233.91;4996529;28;8853;-69
2023/09/23 10:10:47;;;;;;;;;1.00;1.00;;;;;14.95;91.53;101249.13;5000273;28;9642;-69
2023/09/23 10:13:17;;;;;;;;;1.33;1.33;;;;;14.99;91.33;101255.78;5001236;28;9105;-69
2023/09/23 10:15:44;;;;;;;;;1.00;1.00;;;;;15.06;91.71;101259.31;4996581;28;9706;-69
2023/09/23 10:18:17;;;;;;;;;1.00;1.00;;;;;15.15;91.16;101259.91;5001097;28;8916;-69
2023/09/23 10:20:51;;;;;;;;;0.00;0.00;;;;;15.20;90.63;101263.66;5010094;28;8916;-69
2023/09/23 10:23:21;;;;;;;;;0.00;0.00;;;;;15.19;90.43;101264.72;5013249;28;8984;-70
2023/09/23 10:25:50;;;;;;;;;0.00;0.00;;;;;15.18;89.79;101259.50;5013659;28;8994;-69
2023/09/23 10:28:22;;;;;;;;;1.00;0.00;;;;;15.16;89.54;101273.28;5011993;28;8914;-70
2023/09/23 10:31:16;;;;;;;;;0.75;0.75;;;;;15.02;89.52;101280.59;5013181;28;8839;-70
2023/09/23 10:33:42;;;;;;;;;0.00;0.00;;;;;14.93;89.39;101289.19;5010820;28;8914;-69
2023/09/23 10:36:19;;;;;;;;;0.00;0.00;;;;;14.91;88.92;101300.25;5012743;28;8971;-71
2023/09/23 10:38:46;;;;;;;;;0.00;0.00;;;;;14.82;89.30;101304.22;5012422;28;8937;-70
2023/09/23 10:41:13;;;;;;;;;0.00;0.00;;;;;14.81;89.33;101303.38;5012201;28;8840;-69
2023/09/23 10:43:39;;;;;;;;;1.00;0.25;;;;;14.83;89.51;101308.59;5013379;28;8828;-69
2023/09/23 10:46:06;;;;;;;;;1.00;1.00;;;;;14.87;89.09;101317.13;5013241;28;8836;-71
2023/09/23 10:48:33;;;;;;;;;0.00;0.00;;;;;14.88;88.84;101311.50;5013271;28;8932;-70
2023/09/23 10:51:01;;;;;;;;;0.33;0.00;;;;;14.91;88.94;101318.38;5010021;28;8953;-69
2023/09/23 10:53:28;;;;;;;;;0.00;0.00;;;;;14.95;88.75;101323.19;5011220;28;9017;-70
2023/09/23 10:55:55;;;;;;;;;0.75;0.75;;;;;14.91;88.74;101334.63;5010857;28;8937;-69
2023/09/23 10:58:22;;;;;;;;;0.00;0.00;;;;;14.88;88.32;101340.50;5011329;28;8926;-69
2023/09/23 11:00:50;;;;;;;;;0.00;0.00;;;;;14.87;88.34;101345.09;5011363;28;8820;-69
2023/09/23 11:03:19;;;;;;;;;0.00;0.00;;;;;14.82;88.08;101347.56;4996940;28;8913;-69
2023/09/23 11:05:47;;;;;;;;;0.00;0.00;;;;;14.78;87.14;101358.00;4998696;28;9051;-70
2023/09/23 11:08:16;;;;;;;;;0.00;0.00;;;;;14.83;87.36;101366.34;5016145;28;9527;-69
2023/09/23 11:10:44;;;;;;;;;0.00;0.00;;;;;14.92;87.01;101358.00;5030535;28;8828;-69
2023/09/23 11:13:12;;;;;;;;;0.00;0.00;;;;;15.00;86.13;101368.63;5011952;28;8840;-69
2023/09/23 11:15:43;;;;;;;;;0.00;0.00;;;;;15.08;86.59;101373.84;5012402;28;8932;-70
2023/09/23 11:18:16;;;;;;;;;0.00;0.00;;;;;15.21;86.18;101371.09;5010548;28;8891;-70
2023/09/23 11:20:47;;;;;;;;;0.67;0.67;;;;;15.28;86.22;101379.22;5011607;28;8819;-70
2023/09/23 11:23:14;;;;;;;;;0.00;0.00;;;;;15.23;86.61;101382.56;5012259;28;9004;-68
2023/09/23 11:25:47;;;;;;;;;0.00;0.00;;;;;15.20;86.89;101383.00;5011671;28;8832;-71
2023/09/23 11:28:18;;;;;;;;;1.67;1.00;;;;;15.20;87.28;101387.59;5005534;28;8923;-71
2023/09/23 11:30:46;;;;;;;;;0.50;0.00;;;;;15.18;87.62;101386.94;5012490;28;8939;-69
2023/09/23 11:33:13;;;;;;;;;1.00;1.00;;;;;15.15;87.58;101390.06;5010811;28;8860;-69